sensor_id;sensor_type;location;lat;lon;timestamp;temperature;humidity
11549;DHT22;61444;59.472;18.306;2023-06-22T03:41:01;19.00;99.90
11549;DHT22;61444;59.472;18.306;2023-06-22T03:43:11;18.90;99.90
11549;DHT22;61444;59.472;18.306;2023-06-22T03:45:21;18.90;99.90
11549;DHT22;61444;59.472;18.306;2023-06-22T03:47:32;18.80;99.90
11549;DHT22;61444;59.472;18.306;2023-06-22T03:49:41;18.90;99.90
11549;DHT22;61444;59.472;18.306;2023-06-22T03:51:50;18.90;99.90
11549;DHT22;61444;59.472;18.306;2023-06-22T03:53:59;18.90;99.90
11549;DHT22;61444;59.472;18.306;2023-06-22T03:56:09;19.00;99.90
11549;DHT22;61444;59.472;18.306;2023-06-22T03:58:18;19.00;99.90
11549;DHT22;61444;59.472;18.306;2023-06-22T04:00:30;19.00;99.90
11549;DHT22;61444;59.472;18.306;2023-06-22T04:02:41;19.00;99.90
11549;DHT22;61444;59.472;18.306;2023-06-22T04:04:50;19.10;99.90
11549;DHT22;61444;59.472;18.306;2023-06-22T04:07:00;19.10;99.90
11549;DHT22;61444;59.472;18.306;2023-06-22T04:09:09;19.10;99.90
11549;DHT22;61444;59.472;18.306;2023-06-22T04:11:19;19.10;99.90
11549;DHT22;61444;59.472;18.306;2023-06-22T04:13:28;19.20;99.90
11549;DHT22;61444;59.472;18.306;2023-06-22T04:15:38;19.20;99.90
11549;DHT22;61444;59.472;18.306;2023-06-22T04:17:49;19.20;99.90
11549;DHT22;61444;59.472;18.306;2023-06-22T04:19:58;19.20;99.90
11549;DHT22;61444;59.472;18.306;2023-06-22T04:22:07;19.20;99.90
11549;DHT22;61444;59.472;18.306;2023-06-22T04:24:17;19.10;99.90
11549;DHT22;61444;59.472;18.306;2023-06-22T04:26:25;19.30;99.90
11549;DHT22;61444;59.472;18.306;2023-06-22T04:30:43;19.00;99.90
11549;DHT22;61444;59.472;18.306;2023-06-22T04:32:58;19.00;99.90
11549;DHT22;61444;59.472;18.306;2023-06-22T04:35:09;19.00;99.90
11549;DHT22;61444;59.472;18.306;2023-06-22T04:39:30;19.00;99.90
11549;DHT22;61444;59.472;18.306;2023-06-22T04:41:40;18.90;99.90
11549;DHT22;61444;59.472;18.306;2023-06-22T04:43:52;19.10;99.90
11549;DHT22;61444;59.472;18.306;2023-06-22T04:46:04;19.10;99.90
11549;DHT22;61444;59.472;18.306;2023-06-22T04:48:17;19.20;99.90
11549;DHT22;61444;59.472;18.306;2023-06-22T04:50:27;19.30;99.90
11549;DHT22;61444;59.472;18.306;2023-06-22T04:54:46;19.30;99.90
11549;DHT22;61444;59.472;18.306;2023-06-22T04:56:58;19.50;99.90
11549;DHT22;61444;59.472;18.306;2023-06-22T04:59:08;19.50;99.90
11549;DHT22;61444;59.472;18.306;2023-06-22T05:01:20;19.60;99.90
11549;DHT22;61444;59.472;18.306;2023-06-22T05:03:32;19.70;99.90
11549;DHT22;61444;59.472;18.306;2023-06-22T05:05:44;19.70;99.90
11549;DHT22;61444;59.472;18.306;2023-06-22T05:07:53;19.70;99.90
11549;DHT22;61444;59.472;18.306;2023-06-22T05:10:08;19.60;99.90
11549;DHT22;61444;59.472;18.306;2023-06-22T05:12:19;19.50;99.90
11549;DHT22;61444;59.472;18.306;2023-06-22T05:14:29;19.40;99.90
11549;DHT22;61444;59.472;18.306;2023-06-22T05:18:54;19.70;99.90
11549;DHT22;61444;59.472;18.306;2023-06-22T05:21:04;19.80;99.90
11549;DHT22;61444;59.472;18.306;2023-06-22T05:23:12;20.00;99.90
11549;DHT22;61444;59.472;18.306;2023-06-22T05:25:22;19.90;99.90
11549;DHT22;61444;59.472;18.306;2023-06-22T05:27:32;19.90;99.90
11549;DHT22;61444;59.472;18.306;2023-06-22T05:29:49;19.90;99.90
11549;DHT22;61444;59.472;18.306;2023-06-22T05:31:58;20.10;99.90
11549;DHT22;61444;59.472;18.306;2023-06-22T05:34:09;20.00;99.90
11549;DHT22;61444;59.472;18.306;2023-06-22T05:36:20;19.90;99.90
11549;DHT22;61444;59.472;18.306;2023-06-22T05:42:53;19.50;99.90
11549;DHT22;61444;59.472;18.306;2023-06-22T05:45:03;19.50;99.90
11549;DHT22;61444;59.472;18.306;2023-06-22T05:47:13;19.60;99.90
11549;DHT22;61444;59.472;18.306;2023-06-22T05:49:23;19.70;99.90
11549;DHT22;61444;59.472;18.306;2023-06-22T05:51:36;19.70;99.90
11549;DHT22;61444;59.472;18.306;2023-06-22T05:53:45;19.90;99.90
11549;DHT22;61444;59.472;18.306;2023-06-22T05:55:56;20.00;99.90
11549;DHT22;61444;59.472;18.306;2023-06-22T05:58:05;19.90;99.90
11549;DHT22;61444;59.472;18.306;2023-06-22T06:00:14;20.00;99.90
11549;DHT22;61444;59.472;18.306;2023-06-22T06:02:23;20.00;99.90
11549;DHT22;61444;59.472;18.306;2023-06-22T06:04:34;20.00;99.90
11549;DHT22;61444;59.472;18.306;2023-06-22T06:06:43;20.00;99.90
11549;DHT22;61444;59.472;18.306;2023-06-22T06:08:51;20.00;99.90
11549;DHT22;61444;59.472;18.306;2023-06-22T06:11:01;20.10;99.90
11549;DHT22;61444;59.472;18.306;2023-06-22T06:15:20;20.10;99.90
11549;DHT22;61444;59.472;18.306;2023-06-22T06:17:29;19.90;99.90
11549;DHT22;61444;59.472;18.306;2023-06-22T06:21:49;19.70;99.90
11549;DHT22;61444;59.472;18.306;2023-06-22T06:23:58;19.80;99.90
11549;DHT22;61444;59.472;18.306;2023-06-22T06:26:09;19.80;99.90
11549;DHT22;61444;59.472;18.306;2023-06-22T06:28:18;19.90;99.90
11549;DHT22;61444;59.472;18.306;2023-06-22T06:30:29;20.00;99.90
11549;DHT22;61444;59.472;18.306;2023-06-22T12:01:52;24.20;93.20
11549;DHT22;61444;59.472;18.306;2023-06-22T12:04:04;24.60;92.90
11549;DHT22;61444;59.472;18.306;2023-06-22T12:06:13;24.40;93.00
11549;DHT22;61444;59.472;18.306;2023-06-22T12:08:22;23.90;92.80
11549;DHT22;61444;59.472;18.306;2023-06-22T12:10:36;23.90;93.00
11549;DHT22;61444;59.472;18.306;2023-06-22T12:12:46;24.30;93.20
11549;DHT22;61444;59.472;18.306;2023-06-22T12:14:55;24.10;92.50
11549;DHT22;61444;59.472;18.306;2023-06-22T12:17:05;24.10;93.50
11549;DHT22;61444;59.472;18.306;2023-06-22T12:19:17;24.20;93.20
11549;DHT22;61444;59.472;18.306;2023-06-22T12:21:27;24.10;93.20
11549;DHT22;61444;59.472;18.306;2023-06-22T12:23:36;23.90;93.80
11549;DHT22;61444;59.472;18.306;2023-06-22T12:25:45;24.00;92.10
11549;DHT22;61444;59.472;18.306;2023-06-22T12:30:16;23.90;90.90
11549;DHT22;61444;59.472;18.306;2023-06-22T12:32:25;23.90;91.70
11549;DHT22;61444;59.472;18.306;2023-06-22T12:34:38;24.40;91.60
11549;DHT22;61444;59.472;18.306;2023-06-22T12:36:48;24.50;90.50
11549;DHT22;61444;59.472;18.306;2023-06-22T12:38:59;24.70;90.60
11549;DHT22;61444;59.472;18.306;2023-06-22T12:41:08;24.50;90.60
11549;DHT22;61444;59.472;18.306;2023-06-22T12:43:19;24.70;91.10
11549;DHT22;61444;59.472;18.306;2023-06-22T12:45:28;24.90;90.40
11549;DHT22;61444;59.472;18.306;2023-06-22T12:47:41;24.90;90.00
11549;DHT22;61444;59.472;18.306;2023-06-22T12:49:56;24.70;90.60
11549;DHT22;61444;59.472;18.306;2023-06-22T12:52:09;24.50;88.90
11549;DHT22;61444;59.472;18.306;2023-06-22T12:54:19;24.30;90.40
11549;DHT22;61444;59.472;18.306;2023-06-22T12:56:28;24.70;90.20
11549;DHT22;61444;59.472;18.306;2023-06-22T12:58:38;24.90;90.60
11549;DHT22;61444;59.472;18.306;2023-06-22T13:02:59;25.00;89.60
11549;DHT22;61444;59.472;18.306;2023-06-22T13:05:11;25.10;90.00
11549;DHT22;61444;59.472;18.306;2023-06-22T13:07:20;25.60;89.60
11549;DHT22;61444;59.472;18.306;2023-06-22T13:09:30;25.50;89.20
11549;DHT22;61444;59.472;18.306;2023-06-22T13:11:44;25.80;88.50
11549;DHT22;61444;59.472;18.306;2023-06-22T13:13:55;25.30;85.90
11549;DHT22;61444;59.472;18.306;2023-06-22T13:16:05;25.30;86.30
11549;DHT22;61444;59.472;18.306;2023-06-22T13:18:16;25.40;85.60
11549;DHT22;61444;59.472;18.306;2023-06-22T13:20:28;25.40;84.90
11549;DHT22;61444;59.472;18.306;2023-06-22T13:22:39;25.30;84.80
11549;DHT22;61444;59.472;18.306;2023-06-22T13:24:50;25.20;86.30
11549;DHT22;61444;59.472;18.306;2023-06-22T13:27:02;25.40;86.30
11549;DHT22;61444;59.472;18.306;2023-06-22T13:29:12;25.70;84.70
11549;DHT22;61444;59.472;18.306;2023-06-22T13:31:22;25.80;86.10
11549;DHT22;61444;59.472;18.306;2023-06-22T13:33:32;25.40;86.40
11549;DHT22;61444;59.472;18.306;2023-06-22T13:35:42;25.30;85.20
11549;DHT22;61444;59.472;18.306;2023-06-22T13:37:51;25.60;84.40
11549;DHT22;61444;59.472;18.306;2023-06-22T13:40:00;25.70;83.90
11549;DHT22;61444;59.472;18.306;2023-06-22T13:42:20;25.60;84.30
11549;DHT22;61444;59.472;18.306;2023-06-22T13:44:30;25.60;87.40
11549;DHT22;61444;59.472;18.306;2023-06-22T13:46:40;25.50;86.30
11549;DHT22;61444;59.472;18.306;2023-06-22T13:48:50;25.50;84.50
11549;DHT22;61444;59.472;18.306;2023-06-22T13:51:05;25.20;85.10
11549;DHT22;61444;59.472;18.306;2023-06-22T13:53:14;25.60;81.20
11549;DHT22;61444;59.472;18.306;2023-06-22T13:55:24;25.60;82.40
11549;DHT22;61444;59.472;18.306;2023-06-22T13:57:34;25.70;82.50
11549;DHT22;61444;59.472;18.306;2023-06-22T13:59:43;25.80;83.60
11549;DHT22;61444;59.472;18.306;2023-06-22T14:02:14;26.00;81.20
11549;DHT22;61444;59.472;18.306;2023-06-22T14:04:24;25.90;79.60
11549;DHT22;61444;59.472;18.306;2023-06-22T14:06:36;25.70;79.40
11549;DHT22;61444;59.472;18.306;2023-06-22T14:08:59;26.00;80.20
11549;DHT22;61444;59.472;18.306;2023-06-22T14:11:09;26.30;78.70
11549;DHT22;61444;59.472;18.306;2023-06-22T14:13:27;26.40;78.50
11549;DHT22;61444;59.472;18.306;2023-06-22T14:15:50;26.40;80.50
11549;DHT22;61444;59.472;18.306;2023-06-22T14:18:01;26.30;76.90
11549;DHT22;61444;59.472;18.306;2023-06-22T14:20:20;26.30;78.10
11549;DHT22;61444;59.472;18.306;2023-06-22T14:22:31;26.30;77.20
11549;DHT22;61444;59.472;18.306;2023-06-22T14:24:44;26.20;77.10
11549;DHT22;61444;59.472;18.306;2023-06-22T14:26:53;26.20;75.70
11549;DHT22;61444;59.472;18.306;2023-06-22T14:29:02;26.10;75.20
11549;DHT22;61444;59.472;18.306;2023-06-22T14:31:15;26.20;76.00
11549;DHT22;61444;59.472;18.306;2023-06-22T14:33:34;26.30;74.70
11549;DHT22;61444;59.472;18.306;2023-06-22T14:35:58;26.50;75.50
11549;DHT22;61444;59.472;18.306;2023-06-22T14:38:24;26.90;75.50
11549;DHT22;61444;59.472;18.306;2023-06-22T14:40:35;26.70;72.40
11549;DHT22;61444;59.472;18.306;2023-06-22T14:43:04;26.70;72.20
11549;DHT22;61444;59.472;18.306;2023-06-22T14:45:13;26.90;73.10
11549;DHT22;61444;59.472;18.306;2023-06-22T14:47:22;27.00;72.80
11549;DHT22;61444;59.472;18.306;2023-06-22T14:49:32;27.20;74.30
11549;DHT22;61444;59.472;18.306;2023-06-22T14:51:43;27.60;71.80
11549;DHT22;61444;59.472;18.306;2023-06-22T14:53:53;27.80;72.20
11549;DHT22;61444;59.472;18.306;2023-06-22T14:56:04;27.30;69.60
11549;DHT22;61444;59.472;18.306;2023-06-22T14:58:13;26.70;70.70
11549;DHT22;61444;59.472;18.306;2023-06-22T15:00:23;26.50;71.20
11549;DHT22;61444;59.472;18.306;2023-06-22T15:02:33;26.80;72.10
11549;DHT22;61444;59.472;18.306;2023-06-22T15:04:42;27.00;71.50
11549;DHT22;61444;59.472;18.306;2023-06-22T15:06:50;26.80;70.50
11549;DHT22;61444;59.472;18.306;2023-06-22T15:09:01;26.70;70.00
11549;DHT22;61444;59.472;18.306;2023-06-22T15:11:10;26.80;70.70
11549;DHT22;61444;59.472;18.306;2023-06-22T15:13:20;27.20;69.10
11549;DHT22;61444;59.472;18.306;2023-06-22T15:15:30;27.40;70.20
11549;DHT22;61444;59.472;18.306;2023-06-22T15:17:38;26.80;69.50
11549;DHT22;61444;59.472;18.306;2023-06-22T15:19:47;26.80;69.20
11549;DHT22;61444;59.472;18.306;2023-06-22T15:21:56;26.60;71.40
11549;DHT22;61444;59.472;18.306;2023-06-22T15:24:07;26.70;68.80
11549;DHT22;61444;59.472;18.306;2023-06-22T15:32:43;27.00;67.10
11549;DHT22;61444;59.472;18.306;2023-06-22T15:34:54;26.90;67.30
11549;DHT22;61444;59.472;18.306;2023-06-22T15:37:03;27.00;68.30
11549;DHT22;61444;59.472;18.306;2023-06-22T15:39:13;27.50;68.80
11549;DHT22;61444;59.472;18.306;2023-06-22T15:43:32;27.00;68.00
11549;DHT22;61444;59.472;18.306;2023-06-22T15:45:41;26.90;67.20
11549;DHT22;61444;59.472;18.306;2023-06-22T15:47:50;27.60;68.50
11549;DHT22;61444;59.472;18.306;2023-06-22T15:49:58;27.10;66.00
11549;DHT22;61444;59.472;18.306;2023-06-22T15:52:07;26.90;67.20
11549;DHT22;61444;59.472;18.306;2023-06-22T15:54:18;27.00;66.00
11549;DHT22;61444;59.472;18.306;2023-06-22T15:56:26;27.00;66.00
11549;DHT22;61444;59.472;18.306;2023-06-22T15:58:35;27.00;66.50
11549;DHT22;61444;59.472;18.306;2023-06-22T16:00:45;26.90;67.20
11549;DHT22;61444;59.472;18.306;2023-06-22T16:02:59;26.80;66.70
11549;DHT22;61444;59.472;18.306;2023-06-22T16:05:08;26.80;67.00
11549;DHT22;61444;59.472;18.306;2023-06-22T16:07:17;27.00;66.90
11549;DHT22;61444;59.472;18.306;2023-06-22T16:09:27;27.10;66.60
11549;DHT22;61444;59.472;18.306;2023-06-22T16:11:37;27.70;67.10
11549;DHT22;61444;59.472;18.306;2023-06-22T16:13:46;27.20;64.90
11549;DHT22;61444;59.472;18.306;2023-06-22T16:15:54;27.40;66.00
11549;DHT22;61444;59.472;18.306;2023-06-22T16:18:03;27.20;65.10
11549;DHT22;61444;59.472;18.306;2023-06-22T16:20:13;27.30;66.30
11549;DHT22;61444;59.472;18.306;2023-06-22T16:22:24;27.10;65.40
11549;DHT22;61444;59.472;18.306;2023-06-22T16:24:35;27.20;66.10
11549;DHT22;61444;59.472;18.306;2023-06-22T16:26:43;27.20;67.60
11549;DHT22;61444;59.472;18.306;2023-06-22T16:31:03;27.30;66.00
11549;DHT22;61444;59.472;18.306;2023-06-22T16:33:12;27.20;66.20
11549;DHT22;61444;59.472;18.306;2023-06-22T16:35:21;27.00;65.00
11549;DHT22;61444;59.472;18.306;2023-06-22T16:37:30;27.00;66.00
11549;DHT22;61444;59.472;18.306;2023-06-22T16:39:40;26.70;67.00
11549;DHT22;61444;59.472;18.306;2023-06-22T16:41:49;26.50;67.00
11549;DHT22;61444;59.472;18.306;2023-06-22T16:43:58;26.80;67.40
11549;DHT22;61444;59.472;18.306;2023-06-22T16:46:12;26.90;67.10
11549;DHT22;61444;59.472;18.306;2023-06-22T16:50:29;26.70;66.40
11549;DHT22;61444;59.472;18.306;2023-06-22T16:52:39;26.60;66.80
11549;DHT22;61444;59.472;18.306;2023-06-22T16:54:50;26.50;68.20
11549;DHT22;61444;59.472;18.306;2023-06-22T16:57:08;27.30;68.20
11549;DHT22;61444;59.472;18.306;2023-06-22T16:59:16;27.20;67.90
11549;DHT22;61444;59.472;18.306;2023-06-22T17:01:25;26.90;68.10
11549;DHT22;61444;59.472;18.306;2023-06-22T17:03:34;27.20;69.10
11549;DHT22;61444;59.472;18.306;2023-06-22T17:05:44;27.20;67.80
11549;DHT22;61444;59.472;18.306;2023-06-22T17:07:56;26.90;68.30
11549;DHT22;61444;59.472;18.306;2023-06-22T17:10:09;27.10;66.90
11549;DHT22;61444;59.472;18.306;2023-06-22T17:12:18;26.60;67.90
11549;DHT22;61444;59.472;18.306;2023-06-22T17:14:30;26.70;67.70
11549;DHT22;61444;59.472;18.306;2023-06-22T17:16:42;26.60;67.80
11549;DHT22;61444;59.472;18.306;2023-06-22T17:18:53;26.50;68.50
11549;DHT22;61444;59.472;18.306;2023-06-22T17:21:03;26.50;68.90
11549;DHT22;61444;59.472;18.306;2023-06-22T17:23:12;26.50;68.80
11549;DHT22;61444;59.472;18.306;2023-06-22T17:25:24;26.30;69.70
11549;DHT22;61444;59.472;18.306;2023-06-22T17:27:34;26.10;69.80
11549;DHT22;61444;59.472;18.306;2023-06-22T17:29:43;26.60;70.40
11549;DHT22;61444;59.472;18.306;2023-06-22T17:31:55;26.50;68.60
11549;DHT22;61444;59.472;18.306;2023-06-22T17:34:08;26.80;69.10
11549;DHT22;61444;59.472;18.306;2023-06-22T17:36:17;26.80;69.00
11549;DHT22;61444;59.472;18.306;2023-06-22T17:38:25;26.90;69.70
11549;DHT22;61444;59.472;18.306;2023-06-22T17:40:40;26.90;68.60
11549;DHT22;61444;59.472;18.306;2023-06-22T17:42:49;27.10;68.30
11549;DHT22;61444;59.472;18.306;2023-06-22T17:45:01;27.30;67.40
11549;DHT22;61444;59.472;18.306;2023-06-22T17:47:10;28.10;66.40
11549;DHT22;61444;59.472;18.306;2023-06-22T17:49:19;28.20;65.20
11549;DHT22;61444;59.472;18.306;2023-06-22T17:53:39;28.00;64.70
11549;DHT22;61444;59.472;18.306;2023-06-22T17:55:53;28.00;66.10
11549;DHT22;61444;59.472;18.306;2023-06-22T17:58:02;27.40;66.30
11549;DHT22;61444;59.472;18.306;2023-06-22T18:00:13;27.60;67.10
11549;DHT22;61444;59.472;18.306;2023-06-22T18:02:25;27.30;68.10
11549;DHT22;61444;59.472;18.306;2023-06-22T18:04:34;27.40;67.60
11549;DHT22;61444;59.472;18.306;2023-06-22T18:06:44;27.40;67.10
11549;DHT22;61444;59.472;18.306;2023-06-22T18:08:57;27.60;67.30
11549;DHT22;61444;59.472;18.306;2023-06-22T18:11:09;27.70;67.20
11549;DHT22;61444;59.472;18.306;2023-06-22T18:13:19;27.80;67.00
11549;DHT22;61444;59.472;18.306;2023-06-22T18:15:28;27.60;66.80
11549;DHT22;61444;59.472;18.306;2023-06-22T18:17:39;27.40;68.30
11549;DHT22;61444;59.472;18.306;2023-06-22T18:19:51;27.20;68.50
11549;DHT22;61444;59.472;18.306;2023-06-22T18:22:00;26.60;69.10
11549;DHT22;61444;59.472;18.306;2023-06-22T18:24:09;26.80;70.00
11549;DHT22;61444;59.472;18.306;2023-06-22T18:26:21;26.10;70.60
11549;DHT22;61444;59.472;18.306;2023-06-22T18:28:30;25.60;72.40
11549;DHT22;61444;59.472;18.306;2023-06-22T18:30:42;25.70;72.80
11549;DHT22;61444;59.472;18.306;2023-06-22T18:32:51;25.70;72.70
11549;DHT22;61444;59.472;18.306;2023-06-22T18:35:01;25.30;74.40
11549;DHT22;61444;59.472;18.306;2023-06-22T18:37:13;25.20;74.80
11549;DHT22;61444;59.472;18.306;2023-06-22T18:53:01;24.00;77.80
11549;DHT22;61444;59.472;18.306;2023-06-22T18:55:11;23.80;79.70
11549;DHT22;61444;59.472;18.306;2023-06-22T18:57:24;23.60;80.50
11549;DHT22;61444;59.472;18.306;2023-06-22T18:59:46;23.50;81.20
11549;DHT22;61444;59.472;18.306;2023-06-22T19:02:00;23.50;81.70
11549;DHT22;61444;59.472;18.306;2023-06-22T19:04:15;23.50;81.30
11549;DHT22;61444;59.472;18.306;2023-06-22T19:06:55;23.40;82.20
11549;DHT22;61444;59.472;18.306;2023-06-22T19:09:14;23.30;82.40
11549;DHT22;61444;59.472;18.306;2023-06-22T19:11:27;23.20;82.90
11549;DHT22;61444;59.472;18.306;2023-06-22T19:13:45;23.10;83.30
11549;DHT22;61444;59.472;18.306;2023-06-22T19:15:58;23.00;83.80
11549;DHT22;61444;59.472;18.306;2023-06-22T19:18:14;23.00;83.80
11549;DHT22;61444;59.472;18.306;2023-06-22T19:20:33;22.90;84.00
11549;DHT22;61444;59.472;18.306;2023-06-22T19:22:46;22.80;84.40
11549;DHT22;61444;59.472;18.306;2023-06-22T19:24:59;22.80;84.80
11549;DHT22;61444;59.472;18.306;2023-06-22T19:27:08;22.80;85.10
11549;DHT22;61444;59.472;18.306;2023-06-22T19:29:19;22.60;85.60
11549;DHT22;61444;59.472;18.306;2023-06-22T19:31:28;22.60;86.00
11549;DHT22;61444;59.472;18.306;2023-06-22T19:33:37;22.50;86.60
11549;DHT22;61444;59.472;18.306;2023-06-22T19:35:46;22.50;86.60
11549;DHT22;61444;59.472;18.306;2023-06-22T19:37:55;22.40;87.20
11549;DHT22;61444;59.472;18.306;2023-06-22T19:40:08;22.40;87.70
11549;DHT22;61444;59.472;18.306;2023-06-22T19:42:17;22.30;87.90
11549;DHT22;61444;59.472;18.306;2023-06-22T19:44:30;22.30;88.20
11549;DHT22;61444;59.472;18.306;2023-06-22T19:46:38;22.20;88.70
11549;DHT22;61444;59.472;18.306;2023-06-22T19:48:48;22.20;89.60
11549;DHT22;61444;59.472;18.306;2023-06-22T19:51:02;22.10;89.40
11549;DHT22;61444;59.472;18.306;2023-06-22T19:53:12;22.00;89.80
11549;DHT22;61444;59.472;18.306;2023-06-22T19:55:21;22.00;90.00
11549;DHT22;61444;59.472;18.306;2023-06-22T19:57:34;22.00;90.10
11549;DHT22;61444;59.472;18.306;2023-06-22T19:59:45;22.00;90.10
11549;DHT22;61444;59.472;18.306;2023-06-22T20:01:56;21.90;90.50
11549;DHT22;61444;59.472;18.306;2023-06-22T20:04:05;21.80;90.60
11549;DHT22;61444;59.472;18.306;2023-06-22T20:06:17;21.80;90.80
11549;DHT22;61444;59.472;18.306;2023-06-22T20:08:26;21.70;91.00
11549;DHT22;61444;59.472;18.306;2023-06-22T20:10:37;21.60;91.20
11549;DHT22;61444;59.472;18.306;2023-06-22T20:12:48;21.60;91.40
11549;DHT22;61444;59.472;18.306;2023-06-22T20:15:16;21.60;91.60
11549;DHT22;61444;59.472;18.306;2023-06-22T20:17:25;21.40;91.90
11549;DHT22;61444;59.472;18.306;2023-06-22T20:19:35;21.40;92.00
11549;DHT22;61444;59.472;18.306;2023-06-22T20:21:46;21.40;92.30
11549;DHT22;61444;59.472;18.306;2023-06-22T20:23:54;21.40;92.40
11549;DHT22;61444;59.472;18.306;2023-06-22T20:26:07;21.30;92.40
11549;DHT22;61444;59.472;18.306;2023-06-22T20:28:17;21.30;92.40
11549;DHT22;61444;59.472;18.306;2023-06-22T20:30:28;21.30;92.70
11549;DHT22;61444;59.472;18.306;2023-06-22T20:32:46;21.20;93.00
11549;DHT22;61444;59.472;18.306;2023-06-22T20:34:55;21.20;93.20
11549;DHT22;61444;59.472;18.306;2023-06-22T20:37:04;21.10;93.40
11549;DHT22;61444;59.472;18.306;2023-06-22T20:39:14;21.10;93.50
11549;DHT22;61444;59.472;18.306;2023-06-22T20:41:24;21.10;93.60
11549;DHT22;61444;59.472;18.306;2023-06-22T20:43:36;21.10;93.80
11549;DHT22;61444;59.472;18.306;2023-06-22T20:45:47;21.00;93.90
11549;DHT22;61444;59.472;18.306;2023-06-22T20:47:57;20.90;94.20
11549;DHT22;61444;59.472;18.306;2023-06-22T20:50:07;21.00;94.40
11549;DHT22;61444;59.472;18.306;2023-06-22T20:52:16;20.90;94.60
11549;DHT22;61444;59.472;18.306;2023-06-22T20:54:25;20.90;94.80
11549;DHT22;61444;59.472;18.306;2023-06-22T20:56:34;20.90;94.90
11549;DHT22;61444;59.472;18.306;2023-06-22T20:58:42;20.80;95.10
11549;DHT22;61444;59.472;18.306;2023-06-22T21:00:53;20.80;95.30
11549;DHT22;61444;59.472;18.306;2023-06-22T21:03:08;20.70;95.50
11549;DHT22;61444;59.472;18.306;2023-06-22T21:05:18;20.70;95.70
11549;DHT22;61444;59.472;18.306;2023-06-22T21:07:29;20.60;96.10
11549;DHT22;61444;59.472;18.306;2023-06-22T21:09:37;20.60;96.50
11549;DHT22;61444;59.472;18.306;2023-06-22T21:11:58;20.60;96.70
11549;DHT22;61444;59.472;18.306;2023-06-22T21:14:07;20.50;96.90
11549;DHT22;61444;59.472;18.306;2023-06-22T21:16:27;20.40;97.20
11549;DHT22;61444;59.472;18.306;2023-06-22T21:18:36;20.40;97.60
11549;DHT22;61444;59.472;18.306;2023-06-22T21:20:44;20.30;98.00
11549;DHT22;61444;59.472;18.306;2023-06-22T21:22:53;20.30;98.30
11549;DHT22;61444;59.472;18.306;2023-06-22T21:25:05;20.30;98.80
11549;DHT22;61444;59.472;18.306;2023-06-22T21:27:14;20.30;99.30
11549;DHT22;61444;59.472;18.306;2023-06-22T21:29:23;20.20;99.60
11549;DHT22;61444;59.472;18.306;2023-06-22T21:31:34;20.20;99.90
11549;DHT22;61444;59.472;18.306;2023-06-22T21:33:43;20.20;99.90
11549;DHT22;61444;59.472;18.306;2023-06-22T21:35:51;20.10;99.90
11549;DHT22;61444;59.472;18.306;2023-06-22T21:38:01;20.10;99.90
11549;DHT22;61444;59.472;18.306;2023-06-22T21:40:10;20.10;99.90
11549;DHT22;61444;59.472;18.306;2023-06-22T21:42:19;20.10;99.90
11549;DHT22;61444;59.472;18.306;2023-06-22T21:44:29;20.10;99.90
11549;DHT22;61444;59.472;18.306;2023-06-22T21:46:40;20.00;99.90
11549;DHT22;61444;59.472;18.306;2023-06-22T21:48:48;19.90;99.90
11549;DHT22;61444;59.472;18.306;2023-06-22T21:50:57;19.90;99.90
11549;DHT22;61444;59.472;18.306;2023-06-22T21:53:06;19.80;99.90
11549;DHT22;61444;59.472;18.306;2023-06-22T21:55:15;19.80;99.90
11549;DHT22;61444;59.472;18.306;2023-06-22T21:57:24;19.80;99.90
11549;DHT22;61444;59.472;18.306;2023-06-22T21:59:34;19.80;99.90
11549;DHT22;61444;59.472;18.306;2023-06-22T22:01:44;19.80;99.90
11549;DHT22;61444;59.472;18.306;2023-06-22T22:03:53;19.70;99.90
11549;DHT22;61444;59.472;18.306;2023-06-22T22:06:03;19.70;99.90
11549;DHT22;61444;59.472;18.306;2023-06-22T22:08:12;19.70;99.90
11549;DHT22;61444;59.472;18.306;2023-06-22T22:10:21;19.60;99.90
11549;DHT22;61444;59.472;18.306;2023-06-22T22:12:30;19.60;99.90
11549;DHT22;61444;59.472;18.306;2023-06-22T22:14:39;19.60;99.90
11549;DHT22;61444;59.472;18.306;2023-06-22T22:16:49;19.50;99.90
11549;DHT22;61444;59.472;18.306;2023-06-22T22:18:58;19.50;99.90
11549;DHT22;61444;59.472;18.306;2023-06-22T22:21:07;19.50;99.90
11549;DHT22;61444;59.472;18.306;2023-06-22T22:23:15;19.40;99.90
11549;DHT22;61444;59.472;18.306;2023-06-22T22:25:24;19.40;99.90
11549;DHT22;61444;59.472;18.306;2023-06-22T22:27:33;19.40;99.90
11549;DHT22;61444;59.472;18.306;2023-06-22T22:29:42;19.40;99.90
11549;DHT22;61444;59.472;18.306;2023-06-22T22:31:53;19.30;99.90
11549;DHT22;61444;59.472;18.306;2023-06-22T22:34:02;19.30;99.90
11549;DHT22;61444;59.472;18.306;2023-06-22T22:36:11;19.30;99.90
11549;DHT22;61444;59.472;18.306;2023-06-22T22:38:21;19.30;99.90
11549;DHT22;61444;59.472;18.306;2023-06-22T22:40:30;19.20;99.90
11549;DHT22;61444;59.472;18.306;2023-06-22T22:42:39;19.20;99.90
11549;DHT22;61444;59.472;18.306;2023-06-22T22:44:48;19.10;99.90
11549;DHT22;61444;59.472;18.306;2023-06-22T22:46:58;19.00;99.90
11549;DHT22;61444;59.472;18.306;2023-06-22T22:49:07;19.00;99.90
11549;DHT22;61444;59.472;18.306;2023-06-22T22:51:15;19.00;99.90
11549;DHT22;61444;59.472;18.306;2023-06-22T22:53:24;19.00;99.90
11549;DHT22;61444;59.472;18.306;2023-06-22T22:55:34;18.90;99.90
11549;DHT22;61444;59.472;18.306;2023-06-22T22:57:44;18.90;99.90
11549;DHT22;61444;59.472;18.306;2023-06-22T22:59:53;18.80;99.90
11549;DHT22;61444;59.472;18.306;2023-06-22T23:02:04;18.80;99.90
11549;DHT22;61444;59.472;18.306;2023-06-22T23:04:15;18.80;99.90
11549;DHT22;61444;59.472;18.306;2023-06-22T23:06:25;18.80;99.90
11549;DHT22;61444;59.472;18.306;2023-06-22T23:08:34;18.80;99.90
11549;DHT22;61444;59.472;18.306;2023-06-22T23:10:43;18.80;99.90
11549;DHT22;61444;59.472;18.306;2023-06-22T23:12:52;18.80;99.90
11549;DHT22;61444;59.472;18.306;2023-06-22T23:15:00;18.70;99.90
11549;DHT22;61444;59.472;18.306;2023-06-22T23:17:11;18.70;99.90
11549;DHT22;61444;59.472;18.306;2023-06-22T23:19:20;18.70;99.90
11549;DHT22;61444;59.472;18.306;2023-06-22T23:21:29;18.60;99.90
11549;DHT22;61444;59.472;18.306;2023-06-22T23:23:38;18.60;99.90
11549;DHT22;61444;59.472;18.306;2023-06-22T23:25:47;18.60;99.90
11549;DHT22;61444;59.472;18.306;2023-06-22T23:27:56;18.60;99.90
11549;DHT22;61444;59.472;18.306;2023-06-22T23:30:06;18.60;99.90
11549;DHT22;61444;59.472;18.306;2023-06-22T23:32:18;18.50;99.90